Terminal Aerodrome Forecast
Issued by NWS North Platte, NE

Home | Current Version | Previous Version | Text Only | Print | Product List | Glossary Off
Versions: 1 2 3 4 5 6 7 8 9 10 11 12 13 14 15 16 17 18 19

949
FTUS43 KLBF 221120
TAFVTN
TAF
KVTN 221120Z 2212/2312 16013G24KT P6SM OVC015
     FM221600 18018G25KT P6SM OVC025
     FM221900 17020G28KT P6SM BKN050
     FM222300 17017G24KT P6SM VCTS BKN050CB
      TEMPO 2300/2304 VRB25G40KT 4SM TSRAGS SQ BKN040CB
     FM230400 17015G22KT P6SM -TSRA BKN050CB
      TEMPO 2304/2307 34025G40KT 3SM +TSRA SQ OVC025CB
     FM231000 25008KT P6SM BKN120=

USA.gov is the U.S. government's official web portal to all federal, state and local government web resources and services.